Converse, Louisiana
Current Conditions -  °F | °C
As of 3:15 AM on Wednesday 28 Jan 2015 (Local Time) from KIER Reporting Station
Clear Clear  
Wind Chill: 39°   Ceiling: Unl
Heat Index: 39°   Visibility: 10mi
Dew Point: 39°   Wind: 0mph
Humidity: 99%   Direction: NA
Pressure: 30.17"   Gusts: NA
Location:  31.78°N, 93.69°W
Report Text: KIER 280915Z AUTO 00000KT 10SM CLR 04/04 A3017 RMK AO2 T00410039
Loading
Personal Weather Stations






























Interactive Weather Map New forecast layout! Learn more

10-Day Weather Forecast

Advertisements
Track Severe Weather on mobile